sensor_id;sensor_type;location;lat;lon;timestamp;temperature;humidity
77056;SHT30;67471;44.918;8.614;2023-08-08T00:00:17;23.10;43.47
77056;SHT30;67471;44.918;8.614;2023-08-08T00:03:21;23.05;43.66
77056;SHT30;67471;44.918;8.614;2023-08-08T00:06:24;23.14;43.56
77056;SHT30;67471;44.918;8.614;2023-08-08T00:09:28;23.14;43.63
77056;SHT30;67471;44.918;8.614;2023-08-08T00:12:32;23.12;43.52
77056;SHT30;67471;44.918;8.614;2023-08-08T00:15:35;23.08;44.82
77056;SHT30;67471;44.918;8.614;2023-08-08T00:18:39;23.17;45.70
77056;SHT30;67471;44.918;8.614;2023-08-08T00:21:42;23.11;46.26
77056;SHT30;67471;44.918;8.614;2023-08-08T00:24:46;23.08;46.31
77056;SHT30;67471;44.918;8.614;2023-08-08T00:27:49;22.90;46.05
77056;SHT30;67471;44.918;8.614;2023-08-08T00:30:53;22.67;46.25
77056;SHT30;67471;44.918;8.614;2023-08-08T00:33:56;22.57;46.19
77056;SHT30;67471;44.918;8.614;2023-08-08T00:37:00;22.66;45.74
77056;SHT30;67471;44.918;8.614;2023-08-08T00:40:03;22.57;46.17
77056;SHT30;67471;44.918;8.614;2023-08-08T00:43:06;22.60;45.98
77056;SHT30;67471;44.918;8.614;2023-08-08T00:46:10;22.47;46.10
77056;SHT30;67471;44.918;8.614;2023-08-08T00:49:13;22.42;46.03
77056;SHT30;67471;44.918;8.614;2023-08-08T00:52:17;22.46;46.36
77056;SHT30;67471;44.918;8.614;2023-08-08T00:55:20;22.42;46.77
77056;SHT30;67471;44.918;8.614;2023-08-08T00:58:25;22.40;46.80
77056;SHT30;67471;44.918;8.614;2023-08-08T01:01:28;22.37;47.34
77056;SHT30;67471;44.918;8.614;2023-08-08T01:04:31;22.42;46.52
77056;SHT30;67471;44.918;8.614;2023-08-08T01:07:43;22.36;46.43
77056;SHT30;67471;44.918;8.614;2023-08-08T01:10:50;22.20;47.29
77056;SHT30;67471;44.918;8.614;2023-08-08T01:13:53;22.23;47.20
77056;SHT30;67471;44.918;8.614;2023-08-08T01:16:59;22.25;46.66
77056;SHT30;67471;44.918;8.614;2023-08-08T01:20:04;22.29;46.54
77056;SHT30;67471;44.918;8.614;2023-08-08T01:26:27;22.19;46.59
77056;SHT30;67471;44.918;8.614;2023-08-08T01:29:31;22.15;46.78
77056;SHT30;67471;44.918;8.614;2023-08-08T01:32:34;22.12;46.72
77056;SHT30;67471;44.918;8.614;2023-08-08T01:35:38;22.12;46.75
77056;SHT30;67471;44.918;8.614;2023-08-08T01:38:46;22.12;46.56
77056;SHT30;67471;44.918;8.614;2023-08-08T01:41:50;22.05;46.60
77056;SHT30;67471;44.918;8.614;2023-08-08T01:44:55;22.13;45.95
77056;SHT30;67471;44.918;8.614;2023-08-08T01:47:59;22.08;46.36
77056;SHT30;67471;44.918;8.614;2023-08-08T01:51:03;22.05;46.65
77056;SHT30;67471;44.918;8.614;2023-08-08T01:54:07;21.82;46.58
77056;SHT30;67471;44.918;8.614;2023-08-08T01:57:10;21.87;46.53
77056;SHT30;67471;44.918;8.614;2023-08-08T02:00:13;21.91;45.81
77056;SHT30;67471;44.918;8.614;2023-08-08T02:03:19;21.95;45.82
77056;SHT30;67471;44.918;8.614;2023-08-08T02:06:23;21.91;45.28
77056;SHT30;67471;44.918;8.614;2023-08-08T02:09:26;21.95;45.37
77056;SHT30;67471;44.918;8.614;2023-08-08T02:12:30;21.89;45.85
77056;SHT30;67471;44.918;8.614;2023-08-08T02:15:33;21.89;46.19
77056;SHT30;67471;44.918;8.614;2023-08-08T02:18:36;21.88;46.01
77056;SHT30;67471;44.918;8.614;2023-08-08T02:21:43;21.82;45.70
77056;SHT30;67471;44.918;8.614;2023-08-08T02:24:47;21.68;45.49
77056;SHT30;67471;44.918;8.614;2023-08-08T02:27:50;21.73;44.67
77056;SHT30;67471;44.918;8.614;2023-08-08T02:30:53;21.73;44.34
77056;SHT30;67471;44.918;8.614;2023-08-08T02:33:57;21.59;44.59
77056;SHT30;67471;44.918;8.614;2023-08-08T02:37:00;21.50;44.56
77056;SHT30;67471;44.918;8.614;2023-08-08T02:40:05;21.40;44.56
77056;SHT30;67471;44.918;8.614;2023-08-08T02:43:09;21.27;44.99
77056;SHT30;67471;44.918;8.614;2023-08-08T02:46:13;21.16;45.28
77056;SHT30;67471;44.918;8.614;2023-08-08T02:49:17;21.20;44.91
77056;SHT30;67471;44.918;8.614;2023-08-08T02:52:21;21.30;44.51
77056;SHT30;67471;44.918;8.614;2023-08-08T02:55:25;21.07;44.98
77056;SHT30;67471;44.918;8.614;2023-08-08T02:58:29;21.11;44.92
77056;SHT30;67471;44.918;8.614;2023-08-08T03:01:35;21.26;44.19
77056;SHT30;67471;44.918;8.614;2023-08-08T03:04:47;21.28;44.12
77056;SHT30;67471;44.918;8.614;2023-08-08T03:07:50;21.50;44.67
77056;SHT30;67471;44.918;8.614;2023-08-08T03:10:56;21.44;45.62
77056;SHT30;67471;44.918;8.614;2023-08-08T03:14:00;21.38;50.89
77056;SHT30;67471;44.918;8.614;2023-08-08T03:17:06;21.34;52.48
77056;SHT30;67471;44.918;8.614;2023-08-08T03:20:10;21.28;52.74
77056;SHT30;67471;44.918;8.614;2023-08-08T03:23:14;21.10;53.13
77056;SHT30;67471;44.918;8.614;2023-08-08T03:26:17;21.09;52.98
77056;SHT30;67471;44.918;8.614;2023-08-08T03:29:22;21.03;48.50
77056;SHT30;67471;44.918;8.614;2023-08-08T03:32:26;20.80;45.15
77056;SHT30;67471;44.918;8.614;2023-08-08T03:35:30;20.80;45.48
77056;SHT30;67471;44.918;8.614;2023-08-08T03:38:34;20.85;48.29
77056;SHT30;67471;44.918;8.614;2023-08-08T03:41:39;20.86;49.14
77056;SHT30;67471;44.918;8.614;2023-08-08T03:44:42;20.99;47.81
77056;SHT30;67471;44.918;8.614;2023-08-08T03:47:48;21.04;51.97
77056;SHT30;67471;44.918;8.614;2023-08-08T03:50:51;20.93;53.81
77056;SHT30;67471;44.918;8.614;2023-08-08T03:53:55;20.78;54.53
77056;SHT30;67471;44.918;8.614;2023-08-08T03:56:59;20.73;54.17
77056;SHT30;67471;44.918;8.614;2023-08-08T04:00:02;20.65;53.96
77056;SHT30;67471;44.918;8.614;2023-08-08T04:03:17;20.59;54.33
77056;SHT30;67471;44.918;8.614;2023-08-08T04:06:21;20.49;54.91
77056;SHT30;67471;44.918;8.614;2023-08-08T04:09:25;20.41;55.50
77056;SHT30;67471;44.918;8.614;2023-08-08T04:12:29;20.32;55.66
77056;SHT30;67471;44.918;8.614;2023-08-08T04:15:32;20.38;55.22
77056;SHT30;67471;44.918;8.614;2023-08-08T04:18:36;20.31;54.87
77056;SHT30;67471;44.918;8.614;2023-08-08T04:21:39;20.17;54.96
77056;SHT30;67471;44.918;8.614;2023-08-08T04:24:43;20.22;54.07
77056;SHT30;67471;44.918;8.614;2023-08-08T04:27:47;20.20;52.78
77056;SHT30;67471;44.918;8.614;2023-08-08T04:30:50;20.18;53.16
77056;SHT30;67471;44.918;8.614;2023-08-08T04:33:53;20.04;53.01
77056;SHT30;67471;44.918;8.614;2023-08-08T04:37:03;20.04;52.36
77056;SHT30;67471;44.918;8.614;2023-08-08T04:40:07;20.03;51.71
77056;SHT30;67471;44.918;8.614;2023-08-08T04:43:12;20.03;51.77
77056;SHT30;67471;44.918;8.614;2023-08-08T04:46:15;20.16;51.76
77056;SHT30;67471;44.918;8.614;2023-08-08T04:49:18;20.18;51.41
77056;SHT30;67471;44.918;8.614;2023-08-08T04:52:22;20.29;52.04
77056;SHT30;67471;44.918;8.614;2023-08-08T04:55:25;20.34;51.75
77056;SHT30;67471;44.918;8.614;2023-08-08T04:58:29;20.32;50.14
77056;SHT30;67471;44.918;8.614;2023-08-08T05:01:32;20.20;50.44
77056;SHT30;67471;44.918;8.614;2023-08-08T05:04:35;20.27;50.55
77056;SHT30;67471;44.918;8.614;2023-08-08T05:07:39;20.20;50.00
77056;SHT30;67471;44.918;8.614;2023-08-08T05:10:43;20.38;49.29
77056;SHT30;67471;44.918;8.614;2023-08-08T05:13:46;20.47;49.57
77056;SHT30;67471;44.918;8.614;2023-08-08T05:16:50;20.45;50.34
77056;SHT30;67471;44.918;8.614;2023-08-08T05:19:54;20.41;48.63
77056;SHT30;67471;44.918;8.614;2023-08-08T05:22:57;20.44;47.57
77056;SHT30;67471;44.918;8.614;2023-08-08T05:26:01;20.44;49.36
77056;SHT30;67471;44.918;8.614;2023-08-08T05:29:06;20.39;49.70
77056;SHT30;67471;44.918;8.614;2023-08-08T05:32:10;20.52;49.04
77056;SHT30;67471;44.918;8.614;2023-08-08T05:35:13;20.58;48.65
77056;SHT30;67471;44.918;8.614;2023-08-08T05:38:17;20.71;48.21
77056;SHT30;67471;44.918;8.614;2023-08-08T05:41:20;20.71;48.65
77056;SHT30;67471;44.918;8.614;2023-08-08T05:44:23;20.78;48.76
77056;SHT30;67471;44.918;8.614;2023-08-08T05:47:27;20.89;48.43
77056;SHT30;67471;44.918;8.614;2023-08-08T05:50:30;21.03;47.77
77056;SHT30;67471;44.918;8.614;2023-08-08T05:53:33;21.22;47.72
77056;SHT30;67471;44.918;8.614;2023-08-08T05:56:37;21.44;47.71
77056;SHT30;67471;44.918;8.614;2023-08-08T05:59:41;21.47;46.53
77056;SHT30;67471;44.918;8.614;2023-08-08T06:02:44;21.58;46.24
77056;SHT30;67471;44.918;8.614;2023-08-08T06:05:47;21.53;46.01
77056;SHT30;67471;44.918;8.614;2023-08-08T06:08:51;21.74;44.99
77056;SHT30;67471;44.918;8.614;2023-08-08T06:11:55;21.82;44.36
77056;SHT30;67471;44.918;8.614;2023-08-08T06:14:58;21.94;43.93
77056;SHT30;67471;44.918;8.614;2023-08-08T06:18:01;21.94;43.94
77056;SHT30;67471;44.918;8.614;2023-08-08T06:21:04;22.16;43.65
77056;SHT30;67471;44.918;8.614;2023-08-08T06:24:08;22.30;43.77
77056;SHT30;67471;44.918;8.614;2023-08-08T06:27:12;22.59;44.25
77056;SHT30;67471;44.918;8.614;2023-08-08T06:30:17;22.94;43.93
77056;SHT30;67471;44.918;8.614;2023-08-08T06:33:20;23.27;42.65
77056;SHT30;67471;44.918;8.614;2023-08-08T06:36:24;23.34;42.91
77056;SHT30;67471;44.918;8.614;2023-08-08T06:39:28;24.00;42.27
77056;SHT30;67471;44.918;8.614;2023-08-08T06:42:31;25.20;38.99
77056;SHT30;67471;44.918;8.614;2023-08-08T06:45:38;26.14;37.21
77056;SHT30;67471;44.918;8.614;2023-08-08T06:48:44;26.79;36.38
77056;SHT30;67471;44.918;8.614;2023-08-08T06:51:51;27.51;34.17
77056;SHT30;67471;44.918;8.614;2023-08-08T06:54:55;27.59;33.09
77056;SHT30;67471;44.918;8.614;2023-08-08T06:58:01;27.75;33.93
77056;SHT30;67471;44.918;8.614;2023-08-08T07:01:04;28.08;33.39
77056;SHT30;67471;44.918;8.614;2023-08-08T07:04:08;28.26;32.74
77056;SHT30;67471;44.918;8.614;2023-08-08T07:07:11;28.63;31.59
77056;SHT30;67471;44.918;8.614;2023-08-08T07:10:15;28.10;31.72
77056;SHT30;67471;44.918;8.614;2023-08-08T07:13:19;27.98;32.53
77056;SHT30;67471;44.918;8.614;2023-08-08T07:16:22;28.29;32.61
77056;SHT30;67471;44.918;8.614;2023-08-08T07:19:25;28.68;31.47
77056;SHT30;67471;44.918;8.614;2023-08-08T07:22:29;28.97;30.84
77056;SHT30;67471;44.918;8.614;2023-08-08T07:25:32;28.56;31.23
77056;SHT30;67471;44.918;8.614;2023-08-08T07:28:35;28.70;31.08
77056;SHT30;67471;44.918;8.614;2023-08-08T07:31:39;28.87;31.08
77056;SHT30;67471;44.918;8.614;2023-08-08T07:34:42;29.16;30.37
77056;SHT30;67471;44.918;8.614;2023-08-08T07:37:46;29.60;29.86
77056;SHT30;67471;44.918;8.614;2023-08-08T07:40:50;29.79;29.72
77056;SHT30;67471;44.918;8.614;2023-08-08T07:43:53;30.10;29.11
77056;SHT30;67471;44.918;8.614;2023-08-08T07:46:56;30.51;28.54
77056;SHT30;67471;44.918;8.614;2023-08-08T07:49:59;30.51;28.25
77056;SHT30;67471;44.918;8.614;2023-08-08T07:53:03;30.52;27.83
77056;SHT30;67471;44.918;8.614;2023-08-08T07:56:07;30.44;27.58
77056;SHT30;67471;44.918;8.614;2023-08-08T07:59:11;30.64;26.70
77056;SHT30;67471;44.918;8.614;2023-08-08T08:02:14;30.85;26.50
77056;SHT30;67471;44.918;8.614;2023-08-08T08:05:18;30.81;26.37
77056;SHT30;67471;44.918;8.614;2023-08-08T08:08:21;31.10;25.65
77056;SHT30;67471;44.918;8.614;2023-08-08T08:11:25;30.47;26.61
77056;SHT30;67471;44.918;8.614;2023-08-08T08:14:29;30.32;26.99
77056;SHT30;67471;44.918;8.614;2023-08-08T08:17:32;30.06;27.39
77056;SHT30;67471;44.918;8.614;2023-08-08T08:20:35;30.23;27.14
77056;SHT30;67471;44.918;8.614;2023-08-08T08:23:39;30.51;26.84
77056;SHT30;67471;44.918;8.614;2023-08-08T08:26:43;30.65;27.05
77056;SHT30;67471;44.918;8.614;2023-08-08T08:29:46;30.95;27.03
77056;SHT30;67471;44.918;8.614;2023-08-08T08:32:50;31.73;26.20
77056;SHT30;67471;44.918;8.614;2023-08-08T08:35:53;31.95;26.02
77056;SHT30;67471;44.918;8.614;2023-08-08T08:38:57;32.38;25.53
77056;SHT30;67471;44.918;8.614;2023-08-08T08:42:00;32.32;25.37
77056;SHT30;67471;44.918;8.614;2023-08-08T08:45:08;32.00;24.32
77056;SHT30;67471;44.918;8.614;2023-08-08T08:48:14;32.45;24.25
77056;SHT30;67471;44.918;8.614;2023-08-08T08:51:18;32.91;23.62
77056;SHT30;67471;44.918;8.614;2023-08-08T08:54:22;33.21;23.22
77056;SHT30;67471;44.918;8.614;2023-08-08T08:57:26;33.03;23.49
77056;SHT30;67471;44.918;8.614;2023-08-08T09:00:31;32.73;22.88
77056;SHT30;67471;44.918;8.614;2023-08-08T09:03:35;31.87;22.56
77056;SHT30;67471;44.918;8.614;2023-08-08T09:06:39;31.56;24.01
77056;SHT30;67471;44.918;8.614;2023-08-08T09:09:43;31.60;23.56
77056;SHT30;67471;44.918;8.614;2023-08-08T09:12:47;31.29;24.16
77056;SHT30;67471;44.918;8.614;2023-08-08T09:15:52;31.26;23.22
77056;SHT30;67471;44.918;8.614;2023-08-08T09:18:56;31.53;23.08
77056;SHT30;67471;44.918;8.614;2023-08-08T09:22:00;31.76;23.13
77056;SHT30;67471;44.918;8.614;2023-08-08T09:25:05;32.18;23.32
77056;SHT30;67471;44.918;8.614;2023-08-08T09:28:08;32.65;23.87
77056;SHT30;67471;44.918;8.614;2023-08-08T09:31:12;32.90;24.08
77056;SHT30;67471;44.918;8.614;2023-08-08T09:34:15;33.26;24.05
77056;SHT30;67471;44.918;8.614;2023-08-08T09:37:18;33.41;23.42
77056;SHT30;67471;44.918;8.614;2023-08-08T09:40:23;33.40;23.72
77056;SHT30;67471;44.918;8.614;2023-08-08T09:43:26;33.75;23.24
77056;SHT30;67471;44.918;8.614;2023-08-08T09:46:30;33.69;23.55
77056;SHT30;67471;44.918;8.614;2023-08-08T09:49:35;33.38;23.65
77056;SHT30;67471;44.918;8.614;2023-08-08T09:52:39;33.50;24.03
77056;SHT30;67471;44.918;8.614;2023-08-08T09:55:43;32.83;24.37
77056;SHT30;67471;44.918;8.614;2023-08-08T09:58:47;33.17;24.40
77056;SHT30;67471;44.918;8.614;2023-08-08T10:01:51;33.27;24.01
77056;SHT30;67471;44.918;8.614;2023-08-08T10:04:55;33.26;24.03
77056;SHT30;67471;44.918;8.614;2023-08-08T10:08:01;33.16;23.73
77056;SHT30;67471;44.918;8.614;2023-08-08T10:11:07;32.73;23.40
77056;SHT30;67471;44.918;8.614;2023-08-08T10:14:13;32.40;22.77
77056;SHT30;67471;44.918;8.614;2023-08-08T10:17:18;31.80;22.45
77056;SHT30;67471;44.918;8.614;2023-08-08T10:20:24;31.64;23.05
77056;SHT30;67471;44.918;8.614;2023-08-08T10:23:34;32.15;22.68
77056;SHT30;67471;44.918;8.614;2023-08-08T10:27:00;32.72;21.89
77056;SHT30;67471;44.918;8.614;2023-08-08T10:30:04;32.69;21.93
77056;SHT30;67471;44.918;8.614;2023-08-08T10:33:14;33.02;22.26
77056;SHT30;67471;44.918;8.614;2023-08-08T10:36:18;33.18;21.87
77056;SHT30;67471;44.918;8.614;2023-08-08T10:39:22;33.41;20.80
77056;SHT30;67471;44.918;8.614;2023-08-08T10:42:26;33.11;21.11
77056;SHT30;67471;44.918;8.614;2023-08-08T10:45:30;33.13;21.82
77056;SHT30;67471;44.918;8.614;2023-08-08T10:48:34;32.70;22.21
77056;SHT30;67471;44.918;8.614;2023-08-08T10:51:38;32.82;22.39
77056;SHT30;67471;44.918;8.614;2023-08-08T10:54:51;33.20;22.41
77056;SHT30;67471;44.918;8.614;2023-08-08T11:01:07;33.14;22.80
77056;SHT30;67471;44.918;8.614;2023-08-08T11:04:12;33.62;22.37
77056;SHT30;67471;44.918;8.614;2023-08-08T11:07:16;33.27;22.37
77056;SHT30;67471;44.918;8.614;2023-08-08T11:10:19;32.70;23.22
77056;SHT30;67471;44.918;8.614;2023-08-08T11:13:25;31.51;24.35
77056;SHT30;67471;44.918;8.614;2023-08-08T11:16:29;31.46;24.52
77056;SHT30;67471;44.918;8.614;2023-08-08T11:19:38;31.60;24.48
77056;SHT30;67471;44.918;8.614;2023-08-08T11:22:41;31.70;24.47
77056;SHT30;67471;44.918;8.614;2023-08-08T11:25:45;31.80;24.51
77056;SHT30;67471;44.918;8.614;2023-08-08T11:28:51;32.22;24.57
77056;SHT30;67471;44.918;8.614;2023-08-08T11:31:55;32.83;23.97
77056;SHT30;67471;44.918;8.614;2023-08-08T11:34:59;32.72;24.04
77056;SHT30;67471;44.918;8.614;2023-08-08T11:38:03;33.13;23.98
77056;SHT30;67471;44.918;8.614;2023-08-08T11:41:07;33.33;23.91
77056;SHT30;67471;44.918;8.614;2023-08-08T11:44:11;33.44;24.13
77056;SHT30;67471;44.918;8.614;2023-08-08T11:47:14;33.54;23.97
77056;SHT30;67471;44.918;8.614;2023-08-08T11:50:19;33.65;24.20
77056;SHT30;67471;44.918;8.614;2023-08-08T11:53:23;33.53;24.02
77056;SHT30;67471;44.918;8.614;2023-08-08T11:56:26;33.64;24.32
77056;SHT30;67471;44.918;8.614;2023-08-08T11:59:30;33.72;23.33
77056;SHT30;67471;44.918;8.614;2023-08-08T12:02:37;33.13;23.93
77056;SHT30;67471;44.918;8.614;2023-08-08T12:05:40;32.97;24.51
77056;SHT30;67471;44.918;8.614;2023-08-08T12:08:44;33.11;25.04
77056;SHT30;67471;44.918;8.614;2023-08-08T12:11:48;33.24;24.65
77056;SHT30;67471;44.918;8.614;2023-08-08T12:14:54;33.23;24.34
77056;SHT30;67471;44.918;8.614;2023-08-08T12:17:58;33.38;24.17
77056;SHT30;67471;44.918;8.614;2023-08-08T12:21:01;33.04;24.33
77056;SHT30;67471;44.918;8.614;2023-08-08T12:24:05;32.93;24.10
77056;SHT30;67471;44.918;8.614;2023-08-08T12:27:09;33.08;24.04
77056;SHT30;67471;44.918;8.614;2023-08-08T12:30:12;33.11;23.85
77056;SHT30;67471;44.918;8.614;2023-08-08T12:33:16;33.26;22.99
77056;SHT30;67471;44.918;8.614;2023-08-08T12:36:19;33.14;22.15
77056;SHT30;67471;44.918;8.614;2023-08-08T12:39:23;33.13;22.60
77056;SHT30;67471;44.918;8.614;2023-08-08T12:42:27;32.86;22.99
77056;SHT30;67471;44.918;8.614;2023-08-08T12:45:30;32.80;22.65
77056;SHT30;67471;44.918;8.614;2023-08-08T12:48:33;32.82;22.78
77056;SHT30;67471;44.918;8.614;2023-08-08T12:51:37;32.84;22.56
77056;SHT30;67471;44.918;8.614;2023-08-08T12:54:40;32.72;22.94
77056;SHT30;67471;44.918;8.614;2023-08-08T12:57:44;32.66;22.86
77056;SHT30;67471;44.918;8.614;2023-08-08T13:00:47;32.33;22.93
77056;SHT30;67471;44.918;8.614;2023-08-08T13:03:51;31.56;23.83
77056;SHT30;67471;44.918;8.614;2023-08-08T13:06:54;31.26;24.22
77056;SHT30;67471;44.918;8.614;2023-08-08T13:09:57;31.67;24.13
77056;SHT30;67471;44.918;8.614;2023-08-08T13:13:00;32.04;23.72
77056;SHT30;67471;44.918;8.614;2023-08-08T13:16:04;31.46;23.91
77056;SHT30;67471;44.918;8.614;2023-08-08T13:19:07;31.41;24.22
77056;SHT30;67471;44.918;8.614;2023-08-08T13:22:11;31.57;24.28
77056;SHT30;67471;44.918;8.614;2023-08-08T13:25:14;31.15;24.50
77056;SHT30;67471;44.918;8.614;2023-08-08T13:28:18;30.91;24.71
77056;SHT30;67471;44.918;8.614;2023-08-08T13:31:22;31.10;24.94
77056;SHT30;67471;44.918;8.614;2023-08-08T13:34:25;31.46;24.52
77056;SHT30;67471;44.918;8.614;2023-08-08T13:37:29;31.97;25.70
77056;SHT30;67471;44.918;8.614;2023-08-08T13:40:32;32.25;25.32
77056;SHT30;67471;44.918;8.614;2023-08-08T13:43:35;32.32;25.93
77056;SHT30;67471;44.918;8.614;2023-08-08T13:46:39;32.46;25.45
77056;SHT30;67471;44.918;8.614;2023-08-08T13:49:42;32.35;25.18
77056;SHT30;67471;44.918;8.614;2023-08-08T13:52:45;32.32;24.98
77056;SHT30;67471;44.918;8.614;2023-08-08T13:55:49;32.46;24.46
77056;SHT30;67471;44.918;8.614;2023-08-08T13:58:52;32.52;24.25
77056;SHT30;67471;44.918;8.614;2023-08-08T14:01:55;32.25;23.87
77056;SHT30;67471;44.918;8.614;2023-08-08T14:04:59;32.08;24.94
77056;SHT30;67471;44.918;8.614;2023-08-08T14:08:03;32.31;24.17
77056;SHT30;67471;44.918;8.614;2023-08-08T14:11:06;32.49;23.97
77056;SHT30;67471;44.918;8.614;2023-08-08T14:14:09;32.56;23.73
77056;SHT30;67471;44.918;8.614;2023-08-08T14:17:13;32.62;23.53
77056;SHT30;67471;44.918;8.614;2023-08-08T14:20:16;32.75;23.43
77056;SHT30;67471;44.918;8.614;2023-08-08T14:23:19;32.87;23.67
77056;SHT30;67471;44.918;8.614;2023-08-08T14:26:25;32.97;24.00
77056;SHT30;67471;44.918;8.614;2023-08-08T14:29:28;32.97;24.34
77056;SHT30;67471;44.918;8.614;2023-08-08T14:32:32;33.07;24.40
77056;SHT30;67471;44.918;8.614;2023-08-08T14:35:36;33.02;24.23
77056;SHT30;67471;44.918;8.614;2023-08-08T14:38:39;33.21;23.95
77056;SHT30;67471;44.918;8.614;2023-08-08T14:41:43;33.27;23.85
77056;SHT30;67471;44.918;8.614;2023-08-08T14:44:46;33.17;23.96
77056;SHT30;67471;44.918;8.614;2023-08-08T14:47:50;33.11;23.95
77056;SHT30;67471;44.918;8.614;2023-08-08T14:50:53;32.51;24.74
77056;SHT30;67471;44.918;8.614;2023-08-08T14:53:57;32.18;27.21
77056;SHT30;67471;44.918;8.614;2023-08-08T14:57:01;31.68;28.41
77056;SHT30;67471;44.918;8.614;2023-08-08T15:00:05;31.76;28.90
77056;SHT30;67471;44.918;8.614;2023-08-08T15:03:09;31.56;28.98
77056;SHT30;67471;44.918;8.614;2023-08-08T15:06:13;30.95;28.87
77056;SHT30;67471;44.918;8.614;2023-08-08T15:09:16;30.28;28.80
77056;SHT30;67471;44.918;8.614;2023-08-08T15:12:19;29.89;29.45
77056;SHT30;67471;44.918;8.614;2023-08-08T15:15:23;29.80;28.70
77056;SHT30;67471;44.918;8.614;2023-08-08T15:18:29;29.84;28.59
77056;SHT30;67471;44.918;8.614;2023-08-08T15:21:32;30.18;28.13
77056;SHT30;67471;44.918;8.614;2023-08-08T15:24:36;30.25;28.23
77056;SHT30;67471;44.918;8.614;2023-08-08T15:27:39;30.17;28.07
77056;SHT30;67471;44.918;8.614;2023-08-08T15:30:43;30.01;28.03
77056;SHT30;67471;44.918;8.614;2023-08-08T15:33:46;30.14;27.92
77056;SHT30;67471;44.918;8.614;2023-08-08T15:36:50;30.18;27.85
77056;SHT30;67471;44.918;8.614;2023-08-08T15:39:53;30.27;27.22
77056;SHT30;67471;44.918;8.614;2023-08-08T15:42:57;30.34;27.23
77056;SHT30;67471;44.918;8.614;2023-08-08T15:46:01;30.25;27.22
77056;SHT30;67471;44.918;8.614;2023-08-08T15:49:07;30.18;27.21
77056;SHT30;67471;44.918;8.614;2023-08-08T15:52:11;30.00;27.08
77056;SHT30;67471;44.918;8.614;2023-08-08T15:55:14;30.04;26.71
77056;SHT30;67471;44.918;8.614;2023-08-08T15:58:17;30.06;26.59
77056;SHT30;67471;44.918;8.614;2023-08-08T16:01:21;30.13;26.56
77056;SHT30;67471;44.918;8.614;2023-08-08T16:04:24;30.14;26.01
77056;SHT30;67471;44.918;8.614;2023-08-08T16:07:28;30.23;26.02
77056;SHT30;67471;44.918;8.614;2023-08-08T16:10:31;30.20;25.95
77056;SHT30;67471;44.918;8.614;2023-08-08T16:13:34;29.91;25.81
77056;SHT30;67471;44.918;8.614;2023-08-08T16:16:38;29.99;25.83
77056;SHT30;67471;44.918;8.614;2023-08-08T16:19:41;30.01;25.84
77056;SHT30;67471;44.918;8.614;2023-08-08T16:22:44;29.93;24.74
77056;SHT30;67471;44.918;8.614;2023-08-08T16:25:48;29.86;24.96
77056;SHT30;67471;44.918;8.614;2023-08-08T16:28:51;29.49;25.64
77056;SHT30;67471;44.918;8.614;2023-08-08T16:31:54;29.45;25.84
77056;SHT30;67471;44.918;8.614;2023-08-08T16:34:58;29.48;25.78
77056;SHT30;67471;44.918;8.614;2023-08-08T16:38:01;29.53;25.59
77056;SHT30;67471;44.918;8.614;2023-08-08T16:41:05;29.49;25.56
77056;SHT30;67471;44.918;8.614;2023-08-08T16:44:09;29.45;25.32
77056;SHT30;67471;44.918;8.614;2023-08-08T16:47:11;29.29;25.55
77056;SHT30;67471;44.918;8.614;2023-08-08T16:50:15;29.18;25.69
77056;SHT30;67471;44.918;8.614;2023-08-08T16:53:18;28.95;25.86
77056;SHT30;67471;44.918;8.614;2023-08-08T16:56:21;29.02;25.81
77056;SHT30;67471;44.918;8.614;2023-08-08T16:59:24;29.12;25.59
77056;SHT30;67471;44.918;8.614;2023-08-08T17:02:28;29.12;25.72
77056;SHT30;67471;44.918;8.614;2023-08-08T17:05:31;29.00;25.96
77056;SHT30;67471;44.918;8.614;2023-08-08T17:08:34;28.77;26.29
77056;SHT30;67471;44.918;8.614;2023-08-08T17:11:37;28.68;26.55
77056;SHT30;67471;44.918;8.614;2023-08-08T17:14:41;28.63;26.75
77056;SHT30;67471;44.918;8.614;2023-08-08T17:17:45;28.61;27.07
77056;SHT30;67471;44.918;8.614;2023-08-08T17:20:48;28.60;27.16
77056;SHT30;67471;44.918;8.614;2023-08-08T17:23:52;28.60;27.14
77056;SHT30;67471;44.918;8.614;2023-08-08T17:26:56;28.53;27.54
77056;SHT30;67471;44.918;8.614;2023-08-08T17:30:00;28.52;27.69
77056;SHT30;67471;44.918;8.614;2023-08-08T17:33:03;28.44;27.97
77056;SHT30;67471;44.918;8.614;2023-08-08T17:36:07;28.39;28.28
77056;SHT30;67471;44.918;8.614;2023-08-08T17:39:10;28.44;28.36
77056;SHT30;67471;44.918;8.614;2023-08-08T17:42:14;28.30;28.42
77056;SHT30;67471;44.918;8.614;2023-08-08T17:45:17;28.12;28.60
77056;SHT30;67471;44.918;8.614;2023-08-08T17:48:21;28.06;28.54
77056;SHT30;67471;44.918;8.614;2023-08-08T17:51:24;28.16;28.35
77056;SHT30;67471;44.918;8.614;2023-08-08T17:54:27;28.23;27.86
77056;SHT30;67471;44.918;8.614;2023-08-08T17:57:31;28.16;27.84
77056;SHT30;67471;44.918;8.614;2023-08-08T18:00:34;28.02;27.76
77056;SHT30;67471;44.918;8.614;2023-08-08T18:03:38;27.86;27.58
77056;SHT30;67471;44.918;8.614;2023-08-08T18:06:42;27.66;27.63
77056;SHT30;67471;44.918;8.614;2023-08-08T18:09:45;27.58;27.55
77056;SHT30;67471;44.918;8.614;2023-08-08T18:12:49;27.57;27.22
77056;SHT30;67471;44.918;8.614;2023-08-08T18:15:53;27.61;26.93
77056;SHT30;67471;44.918;8.614;2023-08-08T18:18:58;27.52;26.93
77056;SHT30;67471;44.918;8.614;2023-08-08T18:22:01;27.44;26.79
77056;SHT30;67471;44.918;8.614;2023-08-08T18:25:05;27.30;26.92
77056;SHT30;67471;44.918;8.614;2023-08-08T18:28:09;27.08;26.82
77056;SHT30;67471;44.918;8.614;2023-08-08T18:31:13;27.11;27.11
77056;SHT30;67471;44.918;8.614;2023-08-08T18:34:17;27.06;26.82
77056;SHT30;67471;44.918;8.614;2023-08-08T18:37:20;27.06;27.03
77056;SHT30;67471;44.918;8.614;2023-08-08T18:40:23;27.00;27.13
77056;SHT30;67471;44.918;8.614;2023-08-08T18:43:27;26.83;27.23
77056;SHT30;67471;44.918;8.614;2023-08-08T18:46:30;26.87;27.32
77056;SHT30;67471;44.918;8.614;2023-08-08T18:49:34;26.89;27.15
77056;SHT30;67471;44.918;8.614;2023-08-08T18:52:37;26.63;27.49
77056;SHT30;67471;44.918;8.614;2023-08-08T18:55:41;26.78;27.17
77056;SHT30;67471;44.918;8.614;2023-08-08T18:58:46;26.86;27.09
77056;SHT30;67471;44.918;8.614;2023-08-08T19:01:49;26.86;26.89
77056;SHT30;67471;44.918;8.614;2023-08-08T19:04:53;26.65;27.18
77056;SHT30;67471;44.918;8.614;2023-08-08T19:07:56;26.68;26.98
77056;SHT30;67471;44.918;8.614;2023-08-08T19:11:00;26.51;26.96
77056;SHT30;67471;44.918;8.614;2023-08-08T19:14:03;26.20;27.05
77056;SHT30;67471;44.918;8.614;2023-08-08T19:17:07;26.11;27.26
77056;SHT30;67471;44.918;8.614;2023-08-08T19:20:11;26.09;27.34
77056;SHT30;67471;44.918;8.614;2023-08-08T19:23:14;26.02;27.34
77056;SHT30;67471;44.918;8.614;2023-08-08T19:26:17;26.05;27.40